createdAt,value
2018-06-21T00:01:17.691Z,5.13
2018-06-21T00:03:46.275Z,5.60
2018-06-21T00:06:14.579Z,5.43
2018-06-21T00:08:42.800Z,5.47
2018-06-21T00:11:11.327Z,6.30
2018-06-21T00:13:39.468Z,4.97
2018-06-21T00:16:07.763Z,5.10
2018-06-21T00:18:36.330Z,5.07
2018-06-21T00:21:05.308Z,5.90
2018-06-21T00:23:33.479Z,4.77
2018-06-21T00:26:01.785Z,5.13
2018-06-21T00:28:29.992Z,4.30
2018-06-21T00:30:58.655Z,5.00
2018-06-21T00:33:26.899Z,4.53
2018-06-21T00:35:55.084Z,4.53
2018-06-21T00:38:23.271Z,4.70
2018-06-21T00:40:51.552Z,4.87
2018-06-21T00:43:19.783Z,5.60
2018-06-21T00:45:48.211Z,5.50
2018-06-21T00:48:16.362Z,4.97
2018-06-21T00:50:44.575Z,5.43
2018-06-21T00:53:12.744Z,5.53
2018-06-21T00:55:46.743Z,5.73
2018-06-21T00:58:14.943Z,5.50
2018-06-21T01:00:43.075Z,5.40
2018-06-21T01:03:11.279Z,5.57
2018-06-21T01:05:39.423Z,6.17
2018-06-21T01:08:07.648Z,4.67
2018-06-21T01:10:35.775Z,5.10
2018-06-21T01:13:03.971Z,5.30
2018-06-21T01:15:32.131Z,5.77
2018-06-21T01:18:00.365Z,5.80
2018-06-21T01:20:28.748Z,5.57
2018-06-21T01:22:57.103Z,6.20
2018-06-21T01:25:25.374Z,5.73
2018-06-21T01:27:53.739Z,5.63
2018-06-21T01:30:22.012Z,4.90
2018-06-21T01:32:50.347Z,5.50
2018-06-21T01:35:18.513Z,5.30
2018-06-21T01:37:46.647Z,5.53
2018-06-21T01:40:15.019Z,4.97
2018-06-21T01:42:43.304Z,6.03
2018-06-21T01:45:11.473Z,5.77
2018-06-21T01:47:39.616Z,5.53
2018-06-21T01:50:07.826Z,5.67
2018-06-21T01:52:36.007Z,6.57
2018-06-21T01:55:04.280Z,6.27
2018-06-21T01:57:32.436Z,6.57
2018-06-21T02:00:00.631Z,6.53
2018-06-21T02:02:28.889Z,6.50
2018-06-21T02:04:57.151Z,6.43
2018-06-21T02:07:25.387Z,5.93
2018-06-21T02:09:53.580Z,5.70
2018-06-21T02:12:22.045Z,6.50
2018-06-21T02:14:50.195Z,6.23
2018-06-21T02:17:18.475Z,6.30
2018-06-21T02:19:46.640Z,6.03
2018-06-21T02:22:15.179Z,6.60
2018-06-21T02:24:43.608Z,6.10
2018-06-21T02:27:11.773Z,5.77
2018-06-21T02:29:39.980Z,5.83
2018-06-21T02:32:08.228Z,6.90
2018-06-21T02:34:36.658Z,6.83
2018-06-21T02:37:04.844Z,6.00
2018-06-21T02:39:32.996Z,7.20
2018-06-21T02:42:01.234Z,7.30
2018-06-21T02:44:29.411Z,6.83
2018-06-21T02:46:57.603Z,6.30
2018-06-21T02:49:25.741Z,6.80
2018-06-21T02:51:54.070Z,7.60
2018-06-21T02:54:22.254Z,7.20
2018-06-21T02:56:50.773Z,6.30
2018-06-21T02:59:18.977Z,6.93
2018-06-21T03:01:47.494Z,6.77
2018-06-21T03:04:15.712Z,6.80
2018-06-21T03:06:43.896Z,6.57
2018-06-21T03:09:12.081Z,7.40
2018-06-21T03:11:40.228Z,6.90
2018-06-21T03:14:08.436Z,6.97
2018-06-21T03:16:36.931Z,7.60
2018-06-21T03:19:05.359Z,7.73
2018-06-21T03:21:33.492Z,7.30
2018-06-21T03:24:01.752Z,7.43
2018-06-21T03:26:29.945Z,7.97
2018-06-21T03:28:58.154Z,6.63
2018-06-21T03:31:26.503Z,7.13
2018-06-21T03:33:54.651Z,7.43
2018-06-21T03:36:22.835Z,7.03
2018-06-21T03:38:51.180Z,7.70
2018-06-21T03:41:19.512Z,7.50
2018-06-21T03:43:47.684Z,7.57
2018-06-21T03:46:16.052Z,7.40
2018-06-21T03:48:44.231Z,6.37
2018-06-21T03:51:12.405Z,6.47
2018-06-21T03:53:40.692Z,7.33
2018-06-21T03:56:08.843Z,7.13
2018-06-21T03:58:37.140Z,6.67
2018-06-21T04:01:05.611Z,6.57
2018-06-21T04:03:33.824Z,7.50
2018-06-21T04:06:02.069Z,7.63
2018-06-21T04:08:30.320Z,7.20
2018-06-21T04:10:58.659Z,7.17
2018-06-21T04:13:26.912Z,7.10
2018-06-21T04:15:55.231Z,6.30
2018-06-21T04:18:38.923Z,7.10
2018-06-21T04:21:08.548Z,6.77
2018-06-21T04:23:36.767Z,6.60
2018-06-21T04:26:05.064Z,7.07
2018-06-21T04:28:33.326Z,6.90
2018-06-21T04:31:01.740Z,6.97
2018-06-21T04:33:30.215Z,6.20
2018-06-21T04:35:58.359Z,7.73
2018-06-21T04:38:26.499Z,6.50
2018-06-21T04:40:54.684Z,6.20
2018-06-21T04:43:22.815Z,6.90
2018-06-21T04:45:50.999Z,6.00
2018-06-21T04:48:19.325Z,6.37
2018-06-21T04:50:47.549Z,6.90
2018-06-21T04:53:16.064Z,7.40
2018-06-21T04:55:44.210Z,6.20
2018-06-21T04:58:12.479Z,6.67
2018-06-21T05:00:40.643Z,7.00
2018-06-21T05:03:08.800Z,7.03
2018-06-21T05:05:36.935Z,6.63
2018-06-21T05:08:05.205Z,6.17
2018-06-21T05:10:33.388Z,5.97
2018-06-21T05:13:01.564Z,6.50
2018-06-21T05:15:29.767Z,6.03
2018-06-21T05:17:58.305Z,6.50
2018-06-21T05:20:26.439Z,6.30
2018-06-21T05:22:54.632Z,6.20
2018-06-21T05:25:22.928Z,6.47
2018-06-21T05:27:51.132Z,6.30
2018-06-21T05:30:19.299Z,5.70
2018-06-21T05:32:47.551Z,5.57
2018-06-21T05:35:16.124Z,6.33
2018-06-21T05:37:44.331Z,6.20
2018-06-21T05:40:29.017Z,6.30
2018-06-21T05:42:57.779Z,5.77
2018-06-21T05:45:26.044Z,5.67
2018-06-21T05:47:54.259Z,5.47
2018-06-21T05:50:22.546Z,5.53
2018-06-21T05:52:51.239Z,5.93
2018-06-21T05:55:19.656Z,5.67
2018-06-21T05:57:48.055Z,5.87
2018-06-21T06:00:16.352Z,5.73
2018-06-21T06:02:44.621Z,5.27
2018-06-21T06:05:12.987Z,8.50
2018-06-21T06:07:41.168Z,5.37
2018-06-21T06:10:09.422Z,5.27
2018-06-21T06:12:37.767Z,5.57
2018-06-21T06:15:06.397Z,5.40
2018-06-21T06:17:34.600Z,5.23
2018-06-21T06:20:03.211Z,5.50
2018-06-21T06:22:31.612Z,5.00
2018-06-21T06:24:59.771Z,4.67
2018-06-21T06:27:27.983Z,4.87
2018-06-21T06:29:56.120Z,4.43
2018-06-21T06:32:24.336Z,4.30
2018-06-21T06:34:52.459Z,5.23
2018-06-21T06:37:20.807Z,4.40
2018-06-21T06:39:49.079Z,4.10
2018-06-21T06:42:17.260Z,4.73
2018-06-21T06:44:45.583Z,3.90
2018-06-21T06:47:14.107Z,3.90
2018-06-21T06:49:42.408Z,3.83
2018-06-21T06:52:10.663Z,3.93
2018-06-21T06:54:38.968Z,3.93
2018-06-21T06:57:07.638Z,3.67
2018-06-21T06:59:35.847Z,3.47
2018-06-21T07:02:03.984Z,3.33
2018-06-21T07:04:32.180Z,3.50
2018-06-21T07:07:00.800Z,5.17
2018-06-21T07:09:29.150Z,3.07
2018-06-21T07:11:57.292Z,6.17
2018-06-21T07:14:25.846Z,4.23
2018-06-21T07:16:54.259Z,3.80
2018-06-21T07:19:22.443Z,3.77
2018-06-21T07:21:50.609Z,3.80
2018-06-21T07:24:18.892Z,3.33
2018-06-21T07:26:47.123Z,2.73
2018-06-21T07:29:15.343Z,3.50
2018-06-21T07:31:43.471Z,2.87
2018-06-21T07:34:11.647Z,3.63
2018-06-21T07:36:39.791Z,3.30
2018-06-21T07:39:08.869Z,2.67
2018-06-21T07:41:37.379Z,2.70
2018-06-21T07:44:05.664Z,2.90
2018-06-21T07:46:34.310Z,3.10
2018-06-21T07:49:02.816Z,4.37
2018-06-21T07:51:31.176Z,3.03
2018-06-21T07:53:59.403Z,3.30
2018-06-21T07:56:27.667Z,2.87
2018-06-21T07:58:55.820Z,2.90
2018-06-21T08:01:24.011Z,2.83
2018-06-21T08:03:52.223Z,2.60
2018-06-21T08:06:20.463Z,2.90
2018-06-21T08:08:48.603Z,2.70
2018-06-21T08:11:16.904Z,2.87
2018-06-21T08:13:45.080Z,2.70
2018-06-21T08:16:13.514Z,2.20
2018-06-21T08:18:41.840Z,2.70
2018-06-21T08:21:10.029Z,2.57
2018-06-21T08:23:38.198Z,2.43
2018-06-21T08:26:06.740Z,2.50
2018-06-21T08:28:34.970Z,2.43
2018-06-21T08:31:03.635Z,3.03
2018-06-21T08:33:32.245Z,2.90
2018-06-21T08:36:00.461Z,2.70
2018-06-21T08:38:28.675Z,2.57
2018-06-21T08:40:57.094Z,2.57
2018-06-21T08:43:25.391Z,3.00
2018-06-21T08:45:53.574Z,2.50
2018-06-21T08:48:21.749Z,2.50
2018-06-21T08:50:50.045Z,2.93
2018-06-21T08:53:18.240Z,3.27
2018-06-21T08:55:46.403Z,3.40
2018-06-21T08:58:14.668Z,2.77
2018-06-21T09:00:42.955Z,3.20
2018-06-21T09:03:11.171Z,3.17
2018-06-21T09:05:39.619Z,2.90
2018-06-21T09:08:07.842Z,3.90
2018-06-21T09:10:36.117Z,3.60
2018-06-21T09:13:04.563Z,3.30
2018-06-21T09:15:32.757Z,3.23
2018-06-21T09:18:01.100Z,3.27
2018-06-21T09:20:29.287Z,3.17
2018-06-21T09:22:57.708Z,4.20
2018-06-21T09:25:25.927Z,3.73
2018-06-21T09:27:54.107Z,3.00
2018-06-21T09:30:22.410Z,3.50
2018-06-21T09:32:50.547Z,3.60
2018-06-21T09:35:18.854Z,3.63
2018-06-21T09:37:52.599Z,3.50
2018-06-21T09:40:26.195Z,3.40
2018-06-21T09:42:59.769Z,3.90
2018-06-21T09:45:33.659Z,4.17
2018-06-21T09:48:07.277Z,4.00
2018-06-21T09:50:35.569Z,3.70
2018-06-21T09:53:03.920Z,4.17
2018-06-21T09:55:32.324Z,4.40
2018-06-21T09:58:00.490Z,4.70
2018-06-21T10:00:34.188Z,4.07
2018-06-21T10:03:02.357Z,3.90
2018-06-21T10:05:30.729Z,4.10
2018-06-21T10:07:58.920Z,4.00
2018-06-21T10:10:27.136Z,4.10
2018-06-21T10:12:55.295Z,4.10
2018-06-21T10:15:23.447Z,4.70
2018-06-21T10:17:51.658Z,3.80
2018-06-21T10:20:24.849Z,4.20
2018-06-21T10:22:53.192Z,4.57
2018-06-21T10:25:21.664Z,4.13
2018-06-21T10:27:49.851Z,4.10
2018-06-21T10:30:18.237Z,3.70
2018-06-21T10:32:46.483Z,3.17
2018-06-21T10:35:14.923Z,3.37
2018-06-21T10:37:43.520Z,3.97
2018-06-21T10:40:11.653Z,4.57
2018-06-21T10:42:40.025Z,4.10
2018-06-21T10:45:08.411Z,3.30
2018-06-21T10:47:36.895Z,3.60
2018-06-21T10:50:05.668Z,2.80
2018-06-21T10:52:34.215Z,3.13
2018-06-21T10:55:02.558Z,3.43
2018-06-21T10:57:30.909Z,3.17
2018-06-21T10:59:59.303Z,3.73
2018-06-21T11:02:27.468Z,3.50
2018-06-21T11:04:55.675Z,4.47
2018-06-21T11:07:24.040Z,3.53
2018-06-21T11:09:52.219Z,3.60
2018-06-21T11:12:20.472Z,3.73
2018-06-21T11:14:49.090Z,3.93
2018-06-21T11:17:17.743Z,3.47
2018-06-21T11:19:45.901Z,4.10
2018-06-21T11:22:14.112Z,3.33
2018-06-21T11:24:42.295Z,3.80
2018-06-21T11:27:10.492Z,4.10
2018-06-21T11:29:38.736Z,4.33
2018-06-21T11:32:07.759Z,4.20
2018-06-21T11:34:36.308Z,3.60
2018-06-21T11:37:04.709Z,3.77
2018-06-21T11:39:32.836Z,3.87
2018-06-21T11:42:00.992Z,3.80
2018-06-21T11:44:29.213Z,3.50
2018-06-21T11:46:57.507Z,3.70
2018-06-21T11:49:25.677Z,3.60
2018-06-21T11:51:54.207Z,3.97
2018-06-21T11:54:22.369Z,3.80
2018-06-21T11:56:50.848Z,3.67
2018-06-21T11:59:19.180Z,3.63
2018-06-21T12:01:47.506Z,4.30
2018-06-21T12:04:15.964Z,4.63
2018-06-21T12:06:44.160Z,4.00
2018-06-21T12:09:12.534Z,4.30
2018-06-21T12:11:41.095Z,3.83
2018-06-21T12:14:09.409Z,3.87
2018-06-21T12:16:37.804Z,3.50
2018-06-21T12:19:06.164Z,4.20
2018-06-21T12:21:35.120Z,3.50
2018-06-21T12:24:04.016Z,3.67
2018-06-21T12:26:32.307Z,3.20
2018-06-21T12:29:00.500Z,3.87
2018-06-21T12:31:28.668Z,4.17
2018-06-21T12:33:57.240Z,3.50
2018-06-21T12:36:25.369Z,3.40
2018-06-21T12:38:53.534Z,3.33
2018-06-21T12:41:21.862Z,3.60
2018-06-21T12:43:50.069Z,3.37
2018-06-21T12:46:18.289Z,3.23
2018-06-21T12:48:46.428Z,3.63
2018-06-21T12:51:14.979Z,3.40
2018-06-21T12:53:43.433Z,3.57
2018-06-21T12:56:11.727Z,3.90
2018-06-21T12:58:40.148Z,3.43
2018-06-21T13:01:10.143Z,3.30
2018-06-21T13:03:38.310Z,3.20
2018-06-21T13:06:06.512Z,3.50
2018-06-21T13:08:40.288Z,3.77
2018-06-21T13:11:30.890Z,3.33
2018-06-21T13:14:04.584Z,3.33
2018-06-21T13:16:32.788Z,3.07
2018-06-21T13:19:01.388Z,3.37
2018-06-21T13:21:29.778Z,3.50
2018-06-21T13:23:58.171Z,3.60
2018-06-21T13:26:26.408Z,3.03
2018-06-21T13:28:54.619Z,3.63
2018-06-21T13:31:22.761Z,2.80
2018-06-21T13:33:50.924Z,2.87
2018-06-21T13:36:19.117Z,2.30
2018-06-21T13:38:47.429Z,2.63
2018-06-21T13:41:15.799Z,2.77
2018-06-21T13:43:44.380Z,3.17
2018-06-21T13:46:12.607Z,2.70
2018-06-21T13:48:40.908Z,3.00
2018-06-21T13:51:09.158Z,3.00
2018-06-21T13:53:37.677Z,2.53
2018-06-21T13:56:06.294Z,2.30
2018-06-21T13:58:34.487Z,2.13
2018-06-21T14:01:02.905Z,2.13
2018-06-21T14:03:31.179Z,2.00
2018-06-21T14:05:59.550Z,4.30
2018-06-21T14:08:27.837Z,2.10
2018-06-21T14:10:56.161Z,2.00
2018-06-21T14:13:24.524Z,2.60
2018-06-21T14:15:52.713Z,2.20
2018-06-21T14:18:20.923Z,1.80
2018-06-21T14:20:49.274Z,1.87
2018-06-21T14:23:17.590Z,2.00
2018-06-21T14:25:45.824Z,2.13
2018-06-21T14:28:13.961Z,1.60
2018-06-21T14:30:42.336Z,1.90
2018-06-21T14:33:10.629Z,1.83
2018-06-21T14:35:39.212Z,2.03
2018-06-21T14:38:07.511Z,2.87
2018-06-21T14:40:36.020Z,2.70
2018-06-21T14:43:04.245Z,3.13
2018-06-21T14:45:32.407Z,2.23
2018-06-21T14:48:00.603Z,2.70
2018-06-21T14:50:28.909Z,2.60
2018-06-21T14:52:57.131Z,2.70
2018-06-21T14:55:25.379Z,2.63
2018-06-21T14:57:53.600Z,2.00
2018-06-21T15:00:21.745Z,2.80
2018-06-21T15:02:50.192Z,2.90
2018-06-21T15:05:18.535Z,2.23
2018-06-21T15:07:46.907Z,2.60
2018-06-21T15:10:15.192Z,2.80
2018-06-21T15:12:43.692Z,3.03
2018-06-21T15:15:11.919Z,2.87
2018-06-21T15:17:40.236Z,2.60
2018-06-21T15:20:08.648Z,2.20
2018-06-21T15:22:36.839Z,3.07
2018-06-21T15:25:05.279Z,2.43
2018-06-21T15:27:33.533Z,2.60
2018-06-21T15:30:01.697Z,2.70
2018-06-21T15:32:29.875Z,3.60
2018-06-21T15:34:58.043Z,2.50
2018-06-21T15:37:26.200Z,2.60
2018-06-21T15:39:54.437Z,2.60
2018-06-21T15:42:22.817Z,2.60
2018-06-21T15:44:51.207Z,2.90
2018-06-21T15:47:19.360Z,2.60
2018-06-21T15:49:47.915Z,3.13
2018-06-21T15:52:16.123Z,2.27
2018-06-21T15:54:44.466Z,2.10
2018-06-21T15:57:12.674Z,2.60
2018-06-21T15:59:41.172Z,2.17
2018-06-21T16:02:09.430Z,2.87
2018-06-21T16:04:37.598Z,2.60
2018-06-21T16:07:05.879Z,2.83
2018-06-21T16:09:34.154Z,2.33
2018-06-21T16:12:02.453Z,2.83
2018-06-21T16:14:30.808Z,2.83
2018-06-21T16:16:59.072Z,2.40
2018-06-21T16:19:27.278Z,2.27
2018-06-21T16:21:55.539Z,2.30
2018-06-21T16:24:23.815Z,2.47
2018-06-21T16:26:52.100Z,2.60
2018-06-21T16:29:20.328Z,2.30
2018-06-21T16:31:48.654Z,2.60
2018-06-21T16:34:17.352Z,2.73
2018-06-21T16:36:45.564Z,2.67
2018-06-21T16:39:14.442Z,2.73
2018-06-21T16:41:42.623Z,2.40
2018-06-21T16:44:11.271Z,2.83
2018-06-21T16:46:39.452Z,2.40
2018-06-21T16:49:07.643Z,2.37
2018-06-21T16:51:35.806Z,2.30
2018-06-21T16:54:04.220Z,2.63
2018-06-21T16:56:32.624Z,2.70
2018-06-21T16:59:00.835Z,2.37
2018-06-21T17:01:29.408Z,2.70
2018-06-21T17:03:57.589Z,2.33
2018-06-21T17:06:25.772Z,2.57
2018-06-21T17:08:54.079Z,2.33
2018-06-21T17:11:22.316Z,2.20
2018-06-21T17:13:50.520Z,3.10
2018-06-21T17:16:19.054Z,3.17
2018-06-21T17:18:47.394Z,2.93
2018-06-21T17:21:15.999Z,2.90
2018-06-21T17:23:44.233Z,4.13
2018-06-21T17:26:12.496Z,3.30
2018-06-21T17:28:40.637Z,3.27
2018-06-21T17:31:08.840Z,3.73
2018-06-21T17:33:37.087Z,3.60
2018-06-21T17:36:05.432Z,4.00
2018-06-21T17:38:34.006Z,3.80
2018-06-21T17:41:02.371Z,3.20
2018-06-21T17:43:30.565Z,3.10
2018-06-21T17:45:58.739Z,3.73
2018-06-21T17:48:26.940Z,3.13
2018-06-21T17:50:55.268Z,2.90
2018-06-21T17:53:23.496Z,3.40
2018-06-21T17:55:51.825Z,2.73
2018-06-21T17:58:20.080Z,2.30
2018-06-21T18:00:48.270Z,2.83
2018-06-21T18:03:16.424Z,2.47
2018-06-21T18:05:44.732Z,2.40
2018-06-21T18:08:12.927Z,2.70
2018-06-21T18:10:41.502Z,2.87
2018-06-21T18:13:09.831Z,2.83
2018-06-21T18:15:38.250Z,2.30
2018-06-21T18:18:06.723Z,2.10
2018-06-21T18:20:35.149Z,2.20
2018-06-21T18:23:03.296Z,2.30
2018-06-21T18:25:31.800Z,2.40
2018-06-21T18:28:00.592Z,2.43
2018-06-21T18:30:29.001Z,2.30
2018-06-21T18:32:57.744Z,1.97
2018-06-21T18:35:26.041Z,2.07
2018-06-21T18:37:54.368Z,2.07
2018-06-21T18:40:22.595Z,2.20
2018-06-21T18:42:51.160Z,1.70
2018-06-21T18:45:19.360Z,1.80
2018-06-21T18:47:47.550Z,2.10
2018-06-21T18:50:15.990Z,1.60
2018-06-21T18:52:44.467Z,2.20
2018-06-21T18:55:13.048Z,2.00
2018-06-21T18:57:41.228Z,1.77
2018-06-21T19:00:10.337Z,1.47
2018-06-21T19:02:39.251Z,1.40
2018-06-21T19:05:07.446Z,1.53
2018-06-21T19:07:40.265Z,1.80
2018-06-21T19:10:14.019Z,1.63
2018-06-21T19:12:42.405Z,1.90
2018-06-21T19:15:10.661Z,1.87
2018-06-21T19:17:39.027Z,2.20
2018-06-21T19:20:07.232Z,1.40
2018-06-21T19:22:35.415Z,1.80
2018-06-21T19:25:03.653Z,1.93
2018-06-21T19:27:31.861Z,2.10
2018-06-21T19:30:00.152Z,1.90
2018-06-21T19:32:28.565Z,1.80
2018-06-21T19:34:56.771Z,1.90
2018-06-21T19:37:25.288Z,2.80
2018-06-21T19:39:53.519Z,1.60
2018-06-21T19:42:21.725Z,1.40
2018-06-21T19:44:50.175Z,1.73
2018-06-21T19:47:18.644Z,1.37
2018-06-21T19:49:46.820Z,1.50
2018-06-21T19:52:15.018Z,1.73
2018-06-21T19:54:43.215Z,2.23
2018-06-21T19:57:11.361Z,1.60
2018-06-21T19:59:39.617Z,1.77
2018-06-21T20:02:07.820Z,1.40
2018-06-21T20:04:36.040Z,1.60
2018-06-21T20:07:04.373Z,2.00
2018-06-21T20:09:32.840Z,1.47
2018-06-21T20:12:01.608Z,2.23
2018-06-21T20:14:29.780Z,1.50
2018-06-21T20:16:57.924Z,1.30
2018-06-21T20:19:26.069Z,1.27
2018-06-21T20:21:54.264Z,1.67
2018-06-21T20:24:22.808Z,1.40
2018-06-21T20:26:50.988Z,1.70
2018-06-21T20:29:19.708Z,1.47
2018-06-21T20:31:48.062Z,1.60
2018-06-21T20:34:16.235Z,1.67
2018-06-21T20:36:44.460Z,1.23
2018-06-21T20:39:12.820Z,1.33
2018-06-21T20:41:41.376Z,1.70
2018-06-21T20:44:09.627Z,2.40
2018-06-21T20:46:37.979Z,1.50
2018-06-21T20:49:06.367Z,1.57
2018-06-21T20:51:34.991Z,1.30
2018-06-21T20:54:03.224Z,1.53
2018-06-21T20:56:31.400Z,2.13
2018-06-21T20:58:59.592Z,1.63
2018-06-21T21:01:27.787Z,1.20
2018-06-21T21:03:56.076Z,2.37
2018-06-21T21:06:24.263Z,1.40
2018-06-21T21:08:52.452Z,1.30
2018-06-21T21:11:21.610Z,1.47
2018-06-21T21:13:50.817Z,1.80
2018-06-21T21:16:19.987Z,1.47
2018-06-21T21:18:49.233Z,1.77
2018-06-21T21:21:18.415Z,1.83
2018-06-21T21:23:47.618Z,1.40
2018-06-21T21:26:16.688Z,1.53
2018-06-21T21:28:46.050Z,2.23
2018-06-21T21:31:15.379Z,1.43
2018-06-21T21:33:44.725Z,1.67
2018-06-21T21:36:14.152Z,1.50
2018-06-21T21:38:43.353Z,1.40
2018-06-21T21:41:12.519Z,2.03
2018-06-21T21:43:41.676Z,1.80
2018-06-21T21:46:10.835Z,2.37
2018-06-21T21:48:39.938Z,1.60
2018-06-21T21:51:09.159Z,1.50
2018-06-21T21:53:38.406Z,2.20
2018-06-21T21:56:07.606Z,1.97
2018-06-21T21:58:36.841Z,2.47
2018-06-21T22:01:06.032Z,1.87
2018-06-21T22:03:35.416Z,1.83
2018-06-21T22:06:04.512Z,1.80
2018-06-21T22:08:32.732Z,1.47
2018-06-21T22:11:00.897Z,1.60
2018-06-21T22:13:29.087Z,2.10
2018-06-21T22:15:57.257Z,2.20
2018-06-21T22:18:25.427Z,2.00
2018-06-21T22:20:53.674Z,1.70
2018-06-21T22:23:21.896Z,3.37
2018-06-21T22:25:50.068Z,1.93
2018-06-21T22:28:18.399Z,1.43
2018-06-21T22:30:46.549Z,1.70
2018-06-21T22:33:14.747Z,1.23
2018-06-21T22:35:43.272Z,2.07
2018-06-21T22:38:11.733Z,1.63
2018-06-21T22:40:39.863Z,1.53
2018-06-21T22:43:07.980Z,1.80
2018-06-21T22:45:36.121Z,1.40
2018-06-21T22:48:04.648Z,1.83
2018-06-21T22:50:32.845Z,1.70
2018-06-21T22:53:01.252Z,1.73
2018-06-21T22:55:29.616Z,1.73
2018-06-21T22:57:57.846Z,2.10
2018-06-21T23:00:25.998Z,2.30
2018-06-21T23:02:54.229Z,2.00
2018-06-21T23:05:22.375Z,2.30
2018-06-21T23:07:50.720Z,1.60
2018-06-21T23:10:18.862Z,1.60
2018-06-21T23:12:46.983Z,2.50
2018-06-21T23:15:15.312Z,1.60
2018-06-21T23:17:43.472Z,1.60
2018-06-21T23:20:11.632Z,1.90
2018-06-21T23:22:39.780Z,2.00
2018-06-21T23:25:08.104Z,1.80
2018-06-21T23:27:36.356Z,3.40
2018-06-21T23:30:04.521Z,1.70
2018-06-21T23:32:32.748Z,2.17
2018-06-21T23:35:01.284Z,1.87
2018-06-21T23:37:29.452Z,1.63
2018-06-21T23:39:57.683Z,2.40
2018-06-21T23:42:25.867Z,2.30
2018-06-21T23:44:54.019Z,1.60
2018-06-21T23:47:22.400Z,1.70
2018-06-21T23:49:50.548Z,2.50
2018-06-21T23:52:18.759Z,1.70
2018-06-21T23:54:47.024Z,1.90
2018-06-21T23:57:15.150Z,2.23
2018-06-21T23:59:43.564Z,1.97
